sensor_id;sensor_type;location;lat;lon;timestamp;P1;durP1;ratioP1;P2;durP2;ratioP2
26562;SDS011;14217;50.986;5.826;2023-08-01T00:01:20;0.35;;;0.20;;
26562;SDS011;14217;50.986;5.826;2023-08-01T00:06:22;0.25;;;0.25;;
26562;SDS011;14217;50.986;5.826;2023-08-01T00:11:26;0.30;;;0.13;;
26562;SDS011;14217;50.986;5.826;2023-08-01T00:16:28;0.80;;;0.20;;
26562;SDS011;14217;50.986;5.826;2023-08-01T00:21:30;0.88;;;0.20;;
26562;SDS011;14217;50.986;5.826;2023-08-01T00:26:33;0.50;;;0.20;;
26562;SDS011;14217;50.986;5.826;2023-08-01T00:31:36;0.40;;;0.30;;
26562;SDS011;14217;50.986;5.826;2023-08-01T00:36:38;0.38;;;0.30;;
26562;SDS011;14217;50.986;5.826;2023-08-01T00:41:40;1.58;;;0.40;;
26562;SDS011;14217;50.986;5.826;2023-08-01T00:46:42;1.08;;;0.25;;
26562;SDS011;14217;50.986;5.826;2023-08-01T00:51:44;0.20;;;0.20;;
26562;SDS011;14217;50.986;5.826;2023-08-01T00:56:46;0.17;;;0.17;;
26562;SDS011;14217;50.986;5.826;2023-08-01T01:01:49;0.70;;;0.30;;
26562;SDS011;14217;50.986;5.826;2023-08-01T01:06:53;0.25;;;0.22;;
26562;SDS011;14217;50.986;5.826;2023-08-01T01:11:56;0.20;;;0.20;;
26562;SDS011;14217;50.986;5.826;2023-08-01T01:16:59;0.25;;;0.25;;
26562;SDS011;14217;50.986;5.826;2023-08-01T01:22:02;6.80;;;0.35;;
26562;SDS011;14217;50.986;5.826;2023-08-01T01:27:06;0.45;;;0.30;;
26562;SDS011;14217;50.986;5.826;2023-08-01T01:32:09;0.15;;;0.15;;
26562;SDS011;14217;50.986;5.826;2023-08-01T01:37:11;0.20;;;0.20;;
26562;SDS011;14217;50.986;5.826;2023-08-01T01:42:13;0.68;;;0.30;;
26562;SDS011;14217;50.986;5.826;2023-08-01T01:47:16;0.32;;;0.17;;
26562;SDS011;14217;50.986;5.826;2023-08-01T01:52:19;2.70;;;0.17;;
26562;SDS011;14217;50.986;5.826;2023-08-01T01:57:21;2.15;;;0.47;;
26562;SDS011;14217;50.986;5.826;2023-08-01T02:02:23;0.20;;;0.20;;
26562;SDS011;14217;50.986;5.826;2023-08-01T02:07:25;0.40;;;0.17;;
26562;SDS011;14217;50.986;5.826;2023-08-01T02:12:27;2.92;;;0.30;;
26562;SDS011;14217;50.986;5.826;2023-08-01T02:17:33;0.30;;;0.30;;
26562;SDS011;14217;50.986;5.826;2023-08-01T02:22:35;1.20;;;0.57;;
26562;SDS011;14217;50.986;5.826;2023-08-01T02:27:37;0.65;;;0.20;;
26562;SDS011;14217;50.986;5.826;2023-08-01T02:32:39;0.32;;;0.30;;
26562;SDS011;14217;50.986;5.826;2023-08-01T02:37:41;0.30;;;0.30;;
26562;SDS011;14217;50.986;5.826;2023-08-01T02:42:43;0.10;;;0.10;;
26562;SDS011;14217;50.986;5.826;2023-08-01T02:47:45;0.30;;;0.20;;
26562;SDS011;14217;50.986;5.826;2023-08-01T02:52:48;1.27;;;0.20;;
26562;SDS011;14217;50.986;5.826;2023-08-01T02:57:50;0.20;;;0.20;;
26562;SDS011;14217;50.986;5.826;2023-08-01T03:02:52;2.47;;;0.40;;
26562;SDS011;14217;50.986;5.826;2023-08-01T03:07:54;0.20;;;0.20;;
26562;SDS011;14217;50.986;5.826;2023-08-01T03:12:56;0.32;;;0.22;;
26562;SDS011;14217;50.986;5.826;2023-08-01T03:17:58;0.93;;;0.40;;
26562;SDS011;14217;50.986;5.826;2023-08-01T03:23:00;0.47;;;0.25;;
26562;SDS011;14217;50.986;5.826;2023-08-01T03:28:03;0.52;;;0.38;;
26562;SDS011;14217;50.986;5.826;2023-08-01T03:33:06;0.77;;;0.30;;
26562;SDS011;14217;50.986;5.826;2023-08-01T03:38:08;0.40;;;0.35;;
26562;SDS011;14217;50.986;5.826;2023-08-01T03:43:10;0.40;;;0.40;;
26562;SDS011;14217;50.986;5.826;2023-08-01T03:48:12;0.82;;;0.40;;
26562;SDS011;14217;50.986;5.826;2023-08-01T03:53:14;0.57;;;0.30;;
26562;SDS011;14217;50.986;5.826;2023-08-01T03:58:16;0.60;;;0.38;;
26562;SDS011;14217;50.986;5.826;2023-08-01T04:03:19;2.92;;;0.40;;
26562;SDS011;14217;50.986;5.826;2023-08-01T04:08:21;1.40;;;0.40;;
26562;SDS011;14217;50.986;5.826;2023-08-01T04:13:23;1.67;;;0.22;;
26562;SDS011;14217;50.986;5.826;2023-08-01T04:18:25;0.43;;;0.40;;
26562;SDS011;14217;50.986;5.826;2023-08-01T04:23:27;1.27;;;0.73;;
26562;SDS011;14217;50.986;5.826;2023-08-01T04:28:29;1.63;;;0.60;;
26562;SDS011;14217;50.986;5.826;2023-08-01T04:33:31;1.95;;;0.73;;
26562;SDS011;14217;50.986;5.826;2023-08-01T04:38:33;0.85;;;0.47;;
26562;SDS011;14217;50.986;5.826;2023-08-01T04:43:35;0.50;;;0.43;;
26562;SDS011;14217;50.986;5.826;2023-08-01T04:48:37;0.70;;;0.70;;
26562;SDS011;14217;50.986;5.826;2023-08-01T04:53:39;1.13;;;0.63;;
26562;SDS011;14217;50.986;5.826;2023-08-01T04:58:41;0.68;;;0.60;;
26562;SDS011;14217;50.986;5.826;2023-08-01T05:03:43;0.77;;;0.60;;
26562;SDS011;14217;50.986;5.826;2023-08-01T05:08:45;1.45;;;0.60;;
26562;SDS011;14217;50.986;5.826;2023-08-01T05:13:47;0.65;;;0.57;;
26562;SDS011;14217;50.986;5.826;2023-08-01T05:18:49;0.50;;;0.50;;
26562;SDS011;14217;50.986;5.826;2023-08-01T05:23:51;0.70;;;0.60;;
26562;SDS011;14217;50.986;5.826;2023-08-01T05:28:52;0.88;;;0.82;;
26562;SDS011;14217;50.986;5.826;2023-08-01T05:33:55;0.50;;;0.50;;
26562;SDS011;14217;50.986;5.826;2023-08-01T05:38:56;0.65;;;0.65;;
26562;SDS011;14217;50.986;5.826;2023-08-01T05:43:59;2.05;;;0.80;;
26562;SDS011;14217;50.986;5.826;2023-08-01T05:49:01;1.63;;;0.60;;
26562;SDS011;14217;50.986;5.826;2023-08-01T05:54:03;0.47;;;0.35;;
26562;SDS011;14217;50.986;5.826;2023-08-01T05:59:05;0.68;;;0.60;;
26562;SDS011;14217;50.986;5.826;2023-08-01T06:04:07;0.95;;;0.60;;
26562;SDS011;14217;50.986;5.826;2023-08-01T06:09:09;1.23;;;0.60;;
26562;SDS011;14217;50.986;5.826;2023-08-01T06:14:12;3.33;;;0.57;;
26562;SDS011;14217;50.986;5.826;2023-08-01T06:19:14;1.75;;;0.65;;
26562;SDS011;14217;50.986;5.826;2023-08-01T06:24:16;1.42;;;0.50;;
26562;SDS011;14217;50.986;5.826;2023-08-01T06:29:18;1.23;;;1.02;;
26562;SDS011;14217;50.986;5.826;2023-08-01T06:34:20;4.22;;;1.90;;
26562;SDS011;14217;50.986;5.826;2023-08-01T06:39:22;18.42;;;2.75;;
26562;SDS011;14217;50.986;5.826;2023-08-01T06:44:24;9.40;;;1.75;;
26562;SDS011;14217;50.986;5.826;2023-08-01T06:49:26;10.45;;;1.95;;
26562;SDS011;14217;50.986;5.826;2023-08-01T06:54:28;4.20;;;2.33;;
26562;SDS011;14217;50.986;5.826;2023-08-01T06:59:30;3.97;;;1.95;;
26562;SDS011;14217;50.986;5.826;2023-08-01T07:04:32;4.32;;;2.20;;
26562;SDS011;14217;50.986;5.826;2023-08-01T07:09:36;19.30;;;3.60;;
26562;SDS011;14217;50.986;5.826;2023-08-01T07:14:38;5.50;;;2.97;;
26562;SDS011;14217;50.986;5.826;2023-08-01T07:19:40;6.72;;;3.08;;
26562;SDS011;14217;50.986;5.826;2023-08-01T07:24:42;4.85;;;3.08;;
26562;SDS011;14217;50.986;5.826;2023-08-01T07:29:44;5.72;;;2.72;;
26562;SDS011;14217;50.986;5.826;2023-08-01T07:34:46;3.45;;;2.40;;
26562;SDS011;14217;50.986;5.826;2023-08-01T07:39:49;4.07;;;2.53;;
26562;SDS011;14217;50.986;5.826;2023-08-01T07:44:51;6.30;;;2.35;;
26562;SDS011;14217;50.986;5.826;2023-08-01T07:49:53;5.65;;;2.53;;
26562;SDS011;14217;50.986;5.826;2023-08-01T07:54:56;5.85;;;3.42;;
26562;SDS011;14217;50.986;5.826;2023-08-01T08:00:00;6.75;;;2.67;;
26562;SDS011;14217;50.986;5.826;2023-08-01T08:05:02;4.28;;;2.80;;
26562;SDS011;14217;50.986;5.826;2023-08-01T08:10:04;8.07;;;3.08;;
26562;SDS011;14217;50.986;5.826;2023-08-01T08:15:07;11.75;;;3.05;;
26562;SDS011;14217;50.986;5.826;2023-08-01T08:20:09;4.03;;;3.03;;
26562;SDS011;14217;50.986;5.826;2023-08-01T08:25:11;8.18;;;2.80;;
26562;SDS011;14217;50.986;5.826;2023-08-01T08:30:14;6.93;;;2.50;;
26562;SDS011;14217;50.986;5.826;2023-08-01T08:35:16;5.28;;;2.97;;
26562;SDS011;14217;50.986;5.826;2023-08-01T08:40:19;12.73;;;2.97;;
26562;SDS011;14217;50.986;5.826;2023-08-01T08:45:21;5.63;;;2.00;;
26562;SDS011;14217;50.986;5.826;2023-08-01T08:50:24;4.25;;;1.88;;
26562;SDS011;14217;50.986;5.826;2023-08-01T08:55:28;9.50;;;1.90;;
26562;SDS011;14217;50.986;5.826;2023-08-01T09:00:30;4.05;;;2.00;;
26562;SDS011;14217;50.986;5.826;2023-08-01T09:05:56;5.18;;;2.20;;
26562;SDS011;14217;50.986;5.826;2023-08-01T09:11:02;2.55;;;1.60;;
26562;SDS011;14217;50.986;5.826;2023-08-01T09:16:05;4.32;;;2.22;;
26562;SDS011;14217;50.986;5.826;2023-08-01T09:21:08;5.22;;;2.97;;
26562;SDS011;14217;50.986;5.826;2023-08-01T09:26:14;8.18;;;2.67;;
26562;SDS011;14217;50.986;5.826;2023-08-01T09:31:25;4.20;;;2.47;;
26562;SDS011;14217;50.986;5.826;2023-08-01T09:36:35;3.85;;;1.95;;
26562;SDS011;14217;50.986;5.826;2023-08-01T09:41:37;5.68;;;2.40;;
26562;SDS011;14217;50.986;5.826;2023-08-01T09:46:39;5.53;;;2.78;;
26562;SDS011;14217;50.986;5.826;2023-08-01T09:51:47;4.55;;;2.17;;
26562;SDS011;14217;50.986;5.826;2023-08-01T09:56:53;4.00;;;1.90;;
26562;SDS011;14217;50.986;5.826;2023-08-01T10:01:56;5.95;;;2.53;;
26562;SDS011;14217;50.986;5.826;2023-08-01T10:07:00;3.65;;;1.77;;
26562;SDS011;14217;50.986;5.826;2023-08-01T10:12:08;5.10;;;2.35;;
26562;SDS011;14217;50.986;5.826;2023-08-01T10:17:11;6.50;;;1.73;;
26562;SDS011;14217;50.986;5.826;2023-08-01T10:22:14;4.20;;;2.05;;
26562;SDS011;14217;50.986;5.826;2023-08-01T10:27:20;3.85;;;2.03;;
26562;SDS011;14217;50.986;5.826;2023-08-01T10:32:35;7.97;;;2.15;;
26562;SDS011;14217;50.986;5.826;2023-08-01T10:37:38;3.17;;;1.58;;
26562;SDS011;14217;50.986;5.826;2023-08-01T10:42:42;1.85;;;1.40;;
26562;SDS011;14217;50.986;5.826;2023-08-01T10:47:46;1.98;;;1.50;;
26562;SDS011;14217;50.986;5.826;2023-08-01T10:52:48;2.15;;;1.30;;
26562;SDS011;14217;50.986;5.826;2023-08-01T10:57:50;2.55;;;1.00;;
26562;SDS011;14217;50.986;5.826;2023-08-01T11:02:52;3.67;;;1.30;;
26562;SDS011;14217;50.986;5.826;2023-08-01T11:12:58;3.00;;;1.67;;
26562;SDS011;14217;50.986;5.826;2023-08-01T11:18:01;2.63;;;1.38;;
26562;SDS011;14217;50.986;5.826;2023-08-01T11:23:04;2.60;;;1.50;;
26562;SDS011;14217;50.986;5.826;2023-08-01T11:28:07;2.08;;;1.10;;
26562;SDS011;14217;50.986;5.826;2023-08-01T11:33:20;2.38;;;1.17;;
26562;SDS011;14217;50.986;5.826;2023-08-01T11:38:29;2.38;;;1.27;;
26562;SDS011;14217;50.986;5.826;2023-08-01T11:43:41;2.90;;;1.17;;
26562;SDS011;14217;50.986;5.826;2023-08-01T11:48:45;2.85;;;1.35;;
26562;SDS011;14217;50.986;5.826;2023-08-01T11:53:57;3.40;;;1.23;;
26562;SDS011;14217;50.986;5.826;2023-08-01T11:59:07;1.83;;;0.88;;
26562;SDS011;14217;50.986;5.826;2023-08-01T12:04:12;2.10;;;1.38;;
26562;SDS011;14217;50.986;5.826;2023-08-01T12:09:25;2.05;;;1.00;;
26562;SDS011;14217;50.986;5.826;2023-08-01T12:14:28;2.55;;;1.17;;
26562;SDS011;14217;50.986;5.826;2023-08-01T12:19:30;2.92;;;1.23;;
26562;SDS011;14217;50.986;5.826;2023-08-01T12:24:35;0.98;;;0.73;;
26562;SDS011;14217;50.986;5.826;2023-08-01T12:29:39;2.30;;;1.33;;
26562;SDS011;14217;50.986;5.826;2023-08-01T12:34:41;3.38;;;0.90;;
26562;SDS011;14217;50.986;5.826;2023-08-01T12:39:43;3.78;;;1.40;;
26562;SDS011;14217;50.986;5.826;2023-08-01T12:44:45;3.67;;;1.00;;
26562;SDS011;14217;50.986;5.826;2023-08-01T12:49:47;4.78;;;1.30;;
26562;SDS011;14217;50.986;5.826;2023-08-01T12:54:51;3.35;;;1.15;;
26562;SDS011;14217;50.986;5.826;2023-08-01T12:59:53;3.13;;;1.50;;
26562;SDS011;14217;50.986;5.826;2023-08-01T13:04:55;1.30;;;0.95;;
26562;SDS011;14217;50.986;5.826;2023-08-01T13:09:58;1.95;;;1.30;;
26562;SDS011;14217;50.986;5.826;2023-08-01T13:15:00;3.90;;;1.17;;
26562;SDS011;14217;50.986;5.826;2023-08-01T13:20:17;4.63;;;1.40;;
26562;SDS011;14217;50.986;5.826;2023-08-01T13:25:19;4.60;;;1.20;;
26562;SDS011;14217;50.986;5.826;2023-08-01T13:30:21;2.53;;;1.15;;
26562;SDS011;14217;50.986;5.826;2023-08-01T13:35:24;2.25;;;1.42;;
26562;SDS011;14217;50.986;5.826;2023-08-01T13:40:26;2.28;;;0.95;;
26562;SDS011;14217;50.986;5.826;2023-08-01T13:45:31;2.00;;;0.77;;
26562;SDS011;14217;50.986;5.826;2023-08-01T13:50:33;1.10;;;0.80;;
26562;SDS011;14217;50.986;5.826;2023-08-01T13:55:35;2.40;;;0.80;;
26562;SDS011;14217;50.986;5.826;2023-08-01T14:00:38;1.65;;;0.95;;
26562;SDS011;14217;50.986;5.826;2023-08-01T14:05:40;7.55;;;1.00;;
26562;SDS011;14217;50.986;5.826;2023-08-01T14:10:42;3.25;;;1.02;;
26562;SDS011;14217;50.986;5.826;2023-08-01T14:15:44;6.18;;;1.00;;
26562;SDS011;14217;50.986;5.826;2023-08-01T14:20:46;0.95;;;0.70;;
26562;SDS011;14217;50.986;5.826;2023-08-01T14:25:49;3.58;;;0.75;;
26562;SDS011;14217;50.986;5.826;2023-08-01T14:30:51;4.43;;;1.15;;
26562;SDS011;14217;50.986;5.826;2023-08-01T14:35:53;3.70;;;0.95;;
26562;SDS011;14217;50.986;5.826;2023-08-01T14:40:55;4.97;;;1.60;;
26562;SDS011;14217;50.986;5.826;2023-08-01T14:46:14;2.60;;;1.10;;
26562;SDS011;14217;50.986;5.826;2023-08-01T14:51:16;2.08;;;0.63;;
26562;SDS011;14217;50.986;5.826;2023-08-01T14:56:18;3.55;;;1.00;;
26562;SDS011;14217;50.986;5.826;2023-08-01T15:01:20;1.63;;;0.77;;
26562;SDS011;14217;50.986;5.826;2023-08-01T15:06:23;2.65;;;0.90;;
26562;SDS011;14217;50.986;5.826;2023-08-01T15:11:27;1.65;;;0.73;;
26562;SDS011;14217;50.986;5.826;2023-08-01T15:16:29;1.77;;;0.80;;
26562;SDS011;14217;50.986;5.826;2023-08-01T15:21:31;1.67;;;0.95;;
26562;SDS011;14217;50.986;5.826;2023-08-01T15:26:33;0.70;;;0.60;;
26562;SDS011;14217;50.986;5.826;2023-08-01T15:31:36;3.22;;;0.70;;
26562;SDS011;14217;50.986;5.826;2023-08-01T15:36:38;1.25;;;0.70;;
26562;SDS011;14217;50.986;5.826;2023-08-01T15:41:41;0.85;;;0.43;;
26562;SDS011;14217;50.986;5.826;2023-08-01T15:46:43;1.85;;;0.45;;
26562;SDS011;14217;50.986;5.826;2023-08-01T15:51:45;1.05;;;0.65;;
26562;SDS011;14217;50.986;5.826;2023-08-01T15:56:47;3.90;;;0.80;;
26562;SDS011;14217;50.986;5.826;2023-08-01T16:01:50;1.58;;;0.88;;
26562;SDS011;14217;50.986;5.826;2023-08-01T16:06:52;1.30;;;0.60;;
26562;SDS011;14217;50.986;5.826;2023-08-01T16:11:54;1.70;;;0.75;;
26562;SDS011;14217;50.986;5.826;2023-08-01T16:16:56;1.75;;;0.68;;
26562;SDS011;14217;50.986;5.826;2023-08-01T16:21:58;0.57;;;0.57;;
26562;SDS011;14217;50.986;5.826;2023-08-01T16:27:00;3.45;;;0.60;;
26562;SDS011;14217;50.986;5.826;2023-08-01T16:32:03;5.78;;;0.70;;
26562;SDS011;14217;50.986;5.826;2023-08-01T16:37:05;2.85;;;1.17;;
26562;SDS011;14217;50.986;5.826;2023-08-01T16:42:07;1.58;;;0.82;;
26562;SDS011;14217;50.986;5.826;2023-08-01T16:47:09;2.63;;;0.60;;
26562;SDS011;14217;50.986;5.826;2023-08-01T16:52:12;2.25;;;0.95;;
26562;SDS011;14217;50.986;5.826;2023-08-01T16:57:15;2.10;;;0.55;;
26562;SDS011;14217;50.986;5.826;2023-08-01T17:02:17;2.60;;;0.93;;
26562;SDS011;14217;50.986;5.826;2023-08-01T17:07:19;3.35;;;0.75;;
26562;SDS011;14217;50.986;5.826;2023-08-01T17:12:21;2.08;;;1.20;;
26562;SDS011;14217;50.986;5.826;2023-08-01T17:17:24;2.13;;;0.82;;
26562;SDS011;14217;50.986;5.826;2023-08-01T17:22:26;0.90;;;0.60;;
26562;SDS011;14217;50.986;5.826;2023-08-01T17:27:28;3.65;;;0.80;;
26562;SDS011;14217;50.986;5.826;2023-08-01T17:32:31;2.33;;;0.90;;
26562;SDS011;14217;50.986;5.826;2023-08-01T17:37:34;4.97;;;1.00;;
26562;SDS011;14217;50.986;5.826;2023-08-01T17:42:36;2.97;;;0.60;;
26562;SDS011;14217;50.986;5.826;2023-08-01T17:47:38;4.57;;;1.02;;
26562;SDS011;14217;50.986;5.826;2023-08-01T17:52:40;4.22;;;1.23;;
26562;SDS011;14217;50.986;5.826;2023-08-01T17:57:42;6.07;;;1.10;;
26562;SDS011;14217;50.986;5.826;2023-08-01T18:02:44;1.83;;;0.75;;
26562;SDS011;14217;50.986;5.826;2023-08-01T18:07:46;7.10;;;1.10;;
26562;SDS011;14217;50.986;5.826;2023-08-01T18:12:49;1.67;;;0.85;;
26562;SDS011;14217;50.986;5.826;2023-08-01T18:17:51;4.57;;;1.35;;
26562;SDS011;14217;50.986;5.826;2023-08-01T18:22:54;3.92;;;0.90;;
26562;SDS011;14217;50.986;5.826;2023-08-01T18:27:56;2.63;;;0.98;;
26562;SDS011;14217;50.986;5.826;2023-08-01T18:32:58;3.75;;;1.00;;
26562;SDS011;14217;50.986;5.826;2023-08-01T18:38:00;2.25;;;1.35;;
26562;SDS011;14217;50.986;5.826;2023-08-01T18:43:02;2.72;;;0.85;;
26562;SDS011;14217;50.986;5.826;2023-08-01T18:48:05;2.80;;;1.00;;
26562;SDS011;14217;50.986;5.826;2023-08-01T18:53:07;1.33;;;0.60;;
26562;SDS011;14217;50.986;5.826;2023-08-01T18:58:09;5.05;;;1.17;;
26562;SDS011;14217;50.986;5.826;2023-08-01T19:03:11;3.83;;;1.13;;
26562;SDS011;14217;50.986;5.826;2023-08-01T19:08:14;3.78;;;0.93;;
26562;SDS011;14217;50.986;5.826;2023-08-01T19:13:16;3.80;;;1.15;;
26562;SDS011;14217;50.986;5.826;2023-08-01T19:18:18;1.80;;;0.85;;
26562;SDS011;14217;50.986;5.826;2023-08-01T19:23:20;3.35;;;1.23;;
26562;SDS011;14217;50.986;5.826;2023-08-01T19:28:23;1.70;;;0.65;;
26562;SDS011;14217;50.986;5.826;2023-08-01T19:33:25;1.45;;;0.88;;
26562;SDS011;14217;50.986;5.826;2023-08-01T19:38:27;5.85;;;1.38;;
26562;SDS011;14217;50.986;5.826;2023-08-01T19:43:31;1.90;;;0.75;;
26562;SDS011;14217;50.986;5.826;2023-08-01T19:48:33;2.47;;;1.02;;
26562;SDS011;14217;50.986;5.826;2023-08-01T19:53:38;2.22;;;0.80;;
26562;SDS011;14217;50.986;5.826;2023-08-01T19:58:40;2.50;;;0.80;;
26562;SDS011;14217;50.986;5.826;2023-08-01T20:03:43;4.22;;;1.40;;
26562;SDS011;14217;50.986;5.826;2023-08-01T20:08:46;5.28;;;0.75;;
26562;SDS011;14217;50.986;5.826;2023-08-01T20:13:48;3.42;;;0.75;;
26562;SDS011;14217;50.986;5.826;2023-08-01T20:18:50;3.38;;;0.90;;
26562;SDS011;14217;50.986;5.826;2023-08-01T20:23:52;1.67;;;0.80;;
26562;SDS011;14217;50.986;5.826;2023-08-01T20:28:55;4.22;;;1.00;;
26562;SDS011;14217;50.986;5.826;2023-08-01T20:33:57;3.05;;;0.75;;
26562;SDS011;14217;50.986;5.826;2023-08-01T20:39:00;4.05;;;1.00;;
26562;SDS011;14217;50.986;5.826;2023-08-01T20:44:03;19.95;;;2.15;;
26562;SDS011;14217;50.986;5.826;2023-08-01T20:49:05;10.88;;;1.83;;
26562;SDS011;14217;50.986;5.826;2023-08-01T20:54:07;9.30;;;1.50;;
26562;SDS011;14217;50.986;5.826;2023-08-01T20:59:10;4.47;;;1.15;;
26562;SDS011;14217;50.986;5.826;2023-08-01T21:04:12;2.85;;;0.80;;
26562;SDS011;14217;50.986;5.826;2023-08-01T21:09:15;2.95;;;1.33;;
26562;SDS011;14217;50.986;5.826;2023-08-01T21:14:17;1.38;;;0.65;;
26562;SDS011;14217;50.986;5.826;2023-08-01T21:19:19;2.20;;;1.13;;
26562;SDS011;14217;50.986;5.826;2023-08-01T21:24:22;2.08;;;0.75;;
26562;SDS011;14217;50.986;5.826;2023-08-01T21:29:25;2.33;;;0.90;;
26562;SDS011;14217;50.986;5.826;2023-08-01T21:34:27;1.58;;;0.90;;
26562;SDS011;14217;50.986;5.826;2023-08-01T21:39:28;1.63;;;0.90;;
26562;SDS011;14217;50.986;5.826;2023-08-01T21:44:30;2.00;;;0.90;;
26562;SDS011;14217;50.986;5.826;2023-08-01T21:49:33;1.20;;;0.60;;
26562;SDS011;14217;50.986;5.826;2023-08-01T21:54:35;2.83;;;0.65;;
26562;SDS011;14217;50.986;5.826;2023-08-01T21:59:37;3.88;;;0.98;;
26562;SDS011;14217;50.986;5.826;2023-08-01T22:04:38;1.42;;;0.82;;
26562;SDS011;14217;50.986;5.826;2023-08-01T22:09:41;1.58;;;0.80;;
26562;SDS011;14217;50.986;5.826;2023-08-01T22:14:42;2.28;;;0.90;;
26562;SDS011;14217;50.986;5.826;2023-08-01T22:19:45;1.67;;;0.70;;
26562;SDS011;14217;50.986;5.826;2023-08-01T22:24:47;0.55;;;0.55;;
26562;SDS011;14217;50.986;5.826;2023-08-01T22:29:49;1.83;;;0.88;;
26562;SDS011;14217;50.986;5.826;2023-08-01T22:34:51;1.58;;;0.50;;
26562;SDS011;14217;50.986;5.826;2023-08-01T22:39:53;1.25;;;0.70;;
26562;SDS011;14217;50.986;5.826;2023-08-01T22:44:55;0.73;;;0.50;;
26562;SDS011;14217;50.986;5.826;2023-08-01T22:49:58;2.20;;;0.90;;
26562;SDS011;14217;50.986;5.826;2023-08-01T22:55:07;1.20;;;0.45;;
26562;SDS011;14217;50.986;5.826;2023-08-01T23:00:10;0.80;;;0.60;;
26562;SDS011;14217;50.986;5.826;2023-08-01T23:05:12;1.05;;;0.60;;
26562;SDS011;14217;50.986;5.826;2023-08-01T23:10:14;1.05;;;0.47;;
26562;SDS011;14217;50.986;5.826;2023-08-01T23:15:18;1.52;;;0.50;;
26562;SDS011;14217;50.986;5.826;2023-08-01T23:20:20;1.15;;;0.52;;
26562;SDS011;14217;50.986;5.826;2023-08-01T23:25:22;1.85;;;0.40;;
26562;SDS011;14217;50.986;5.826;2023-08-01T23:30:24;0.93;;;0.38;;
26562;SDS011;14217;50.986;5.826;2023-08-01T23:35:26;0.90;;;0.52;;
26562;SDS011;14217;50.986;5.826;2023-08-01T23:40:28;0.77;;;0.45;;
26562;SDS011;14217;50.986;5.826;2023-08-01T23:45:30;0.50;;;0.40;;
26562;SDS011;14217;50.986;5.826;2023-08-01T23:50:32;1.50;;;0.68;;
26562;SDS011;14217;50.986;5.826;2023-08-01T23:55:39;1.23;;;0.50;;
